Date,TemperatureHighF,TemperatureAvgF,TemperatureLowF,DewpointHighF,DewpointAvgF,DewpointLowF,HumidityHigh,HumidityAvg,HumidityLow,PressureMaxIn,PressureMinIn,WindSpeedMaxMPH,WindSpeedAvgMPH,GustSpeedMaxMPH,PrecipitationSumIn
2013-1-1,20.0,8.6,-7.5,16.0,4.2,-11.3,85,81,78,30.37,29.99,9,2,0,0.00
2013-1-2,27.9,17.1,4.3,22.3,11.8,-0.7,86,79,72,30.31,29.92,16,4,17,0.00
2013-1-3,23.1,12.9,1.1,16.0,7.4,-3.4,82,78,72,30.38,30.03,9,2,0,0.00
2013-1-4,27.6,19.5,11.2,17.6,12.7,6.8,85,75,63,30.16,30.03,8,1,0,0.00
2013-1-5,16.4,9.9,4.3,10.8,5.0,-0.5,84,80,71,30.22,30.00,16,2,16,0.00
2013-1-6,16.4,13.3,7.0,11.6,8.4,2.8,85,80,73,30.27,29.84,18,3,18,0.00
2013-1-7,36.3,26.1,15.9,24.7,19.0,11.2,85,74,61,29.96,29.81,17,2,17,0.00
2013-1-8,33.9,25.6,12.5,26.5,19.9,8.6,86,79,68,29.95,29.69,13,3,17,0.01
2013-1-9,33.0,26.2,21.1,25.0,18.9,15.0,77,73,63,30.29,29.83,27,4,27,0.00
2013-1-10,42.5,35.2,28.2,31.1,27.2,22.0,87,73,54,30.08,29.58,26,8,26,0.09
2013-1-11,34.1,25.8,12.1,30.9,22.4,8.2,88,87,84,29.58,29.47,20,5,20,0.12
2013-1-12,12.1,4.7,0.5,8.1,0.2,-4.3,84,81,77,30.28,29.54,20,6,22,0.03
2013-1-13,8.5,3.1,-2.8,2.6,-2.1,-7.5,81,77,74,30.36,30.23,9,2,0,0.01
2013-1-14,12.8,6.2,-1.0,5.9,0.9,-5.4,82,78,70,30.46,30.29,9,2,0,0.00
2013-1-15,27.1,14.1,2.3,23.3,8.4,-2.0,86,78,68,30.29,29.64,16,4,16,0.01
2013-1-16,35.1,14.5,-1.2,31.3,7.0,-10.6,87,71,48,30.40,29.61,26,5,26,0.04
2013-1-17,13.8,8.0,-0.8,6.9,0.3,-10.2,80,69,58,30.52,30.22,13,2,13,0.00
2013-1-18,28.7,22.0,11.9,22.5,16.7,6.9,83,80,76,30.22,29.73,19,3,19,0.01
2013-1-19,35.0,13.1,-1.7,29.2,7.6,-7.9,85,77,71,30.44,29.72,25,6,27,0.00
2013-1-20,4.1,-2.2,-10.7,-3.0,-8.9,-16.7,76,69,62,30.51,30.44,18,4,19,0.00
2013-1-21,-3.3,-9.4,-14.1,-11.2,-15.5,-19.5,75,67,61,30.51,30.42,12,3,12,0.00
2013-1-22,8.5,-2.1,-13.2,2.3,-8.3,-17.1,77,71,64,30.49,30.28,7,1,0,0.00
2013-1-23,8.4,-2.6,-13.3,3.1,-8.9,-19.4,82,70,59,30.80,30.26,21,4,23,0.00
2013-1-24,12.8,-1.6,-13.3,5.3,-8.5,-19.0,78,68,64,30.80,30.10,21,5,23,0.00
2013-1-25,14.8,4.2,-2.8,8.3,-2.7,-8.1,78,71,67,30.43,30.03,19,4,19,0.00
2013-1-26,17.2,8.0,-3.1,9.8,1.2,-8.1,77,72,66,30.43,30.11,18,4,20,0.00
2013-1-27,32.5,21.5,8.7,26.0,15.4,4.1,86,77,69,30.11,29.83,8,1,0,0.00
2013-1-28,30.4,28.4,25.6,27.3,24.9,22.0,88,87,85,29.87,29.75,6,1,0,0.23
2013-1-29,26.0,22.1,15.1,22.0,17.8,9.8,87,83,77,30.01,29.71,17,4,17,0.14
2013-1-30,15.1,7.2,-5.1,9.8,1.8,-10.1,81,77,74,30.03,29.93,17,6,17,0.00
2013-1-31,-4.1,-7.7,-14.6,-9.9,-12.8,-19.2,78,72,68,30.45,30.03,19,5,19,0.00
2013-2-1,2.7,-8.0,-18.0,-2.6,-12.5,-21.4,78,74,71,30.43,30.17,13,2,13,0.01
2013-2-2,30.9,1.1,-10.3,23.9,-3.8,-14.0,80,77,72,30.33,30.08,14,2,18,0.03
2013-2-3,9.0,5.9,2.6,1.6,-1.1,-4.3,78,72,60,30.23,30.09,8,1,0,0.00
2013-2-4,20.0,8.0,-0.7,16.0,0.9,-6.6,84,72,57,30.18,29.67,18,3,18,0.00
2013-2-5,27.1,13.6,7.6,22.9,7.6,1.8,86,77,67,30.14,29.67,17,3,21,0.02
2013-2-6,28.9,20.3,9.6,22.0,14.4,4.4,81,78,73,30.16,29.93,15,2,16,0.00
2013-2-7,21.8,16.0,10.6,16.5,11.3,5.9,84,81,76,30.39,30.15,10,2,0,0.00
2013-2-8,25.1,19.2,11.0,18.9,14.3,7.2,86,81,71,30.39,30.07,23,4,23,0.00
2013-2-9,31.8,28.1,22.4,27.4,23.8,17.9,87,84,77,30.08,29.90,14,3,15,0.00
2013-2-10,29.8,28.3,25.4,26.4,25.0,22.0,88,87,86,29.90,29.54,26,4,27,0.62
2013-2-11,25.3,20.6,14.8,22.0,17.3,11.4,88,87,86,30.06,29.72,25,5,25,0.05
2013-2-12,30.4,23.0,12.7,27.3,19.7,9.0,88,87,85,29.99,29.81,11,2,0,0.03
2013-2-13,31.2,24.7,16.3,28.1,21.5,12.9,88,87,86,29.83,29.64,11,1,0,0.10
2013-2-14,19.4,13.8,7.0,15.9,10.0,2.9,86,85,82,30.35,29.82,17,3,18,0.00
2013-2-15,15.3,7.9,0.3,11.3,4.1,-3.5,85,84,82,30.49,30.32,8,1,0,0.00
2013-2-16,15.6,9.3,-1.9,11.9,5.5,-5.6,85,84,81,30.33,30.05,16,4,18,0.00
2013-2-17,30.1,22.8,13.3,26.7,19.1,9.4,87,86,84,30.06,29.54,26,8,26,0.00
2013-2-18,29.6,10.6,-0.7,26.3,6.7,-4.6,88,83,80,30.21,29.53,28,9,28,0.04
2013-2-19,-0.7,-6.2,-11.6,-4.6,-10.0,-15.1,81,78,77,30.62,30.21,25,6,25,0.00
2013-2-20,6.2,-4.8,-15.2,0.6,-9.0,-18.5,81,78,75,30.64,30.48,7,1,0,0.00
2013-2-21,19.5,8.5,-5.2,13.3,3.4,-8.8,84,78,73,30.54,30.25,12,1,13,0.00
2013-2-22,19.6,15.1,10.5,15.1,10.5,5.8,86,82,77,30.25,29.99,10,2,12,0.00
2013-2-23,21.6,15.7,8.2,17.0,11.9,4.4,86,85,80,30.03,29.93,7,1,0,0.00
2013-2-24,22.2,13.6,1.5,15.9,9.0,-2.4,85,81,76,30.14,30.03,11,2,12,0.00
2013-2-25,27.9,21.7,12.8,21.5,17.4,9.2,87,83,74,30.16,30.06,14,3,15,0.00
2013-2-26,25.2,20.2,16.3,21.8,16.8,12.5,87,86,85,30.15,30.07,11,2,0,0.00
2013-2-27,27.9,19.0,9.6,23.3,15.0,5.5,86,84,82,30.26,30.15,21,4,21,0.00
2013-2-28,28.3,23.6,19.7,20.9,18.2,14.7,85,80,72,30.36,30.26,16,3,16,0.00
2013-3-1,29.7,18.2,9.3,20.3,12.7,5.5,85,79,66,30.48,30.36,7,1,0,0.00
2013-3-2,23.8,15.5,2.4,16.1,8.6,-1.4,85,74,56,30.43,30.14,16,3,18,0.00
2013-3-3,32.1,24.2,13.0,23.0,15.5,8.4,83,70,54,30.15,29.89,15,4,20,0.00
2013-3-4,28.6,26.0,24.4,22.8,21.1,14.1,86,82,54,30.04,29.88,22,5,22,0.19
2013-3-5,26.5,23.5,19.7,21.4,19.0,15.4,87,83,78,30.46,30.03,17,4,18,0.12
2013-3-6,24.2,20.2,13.5,17.9,14.4,9.3,84,78,68,30.51,30.38,8,1,0,0.00
2013-3-7,30.3,21.0,10.6,20.0,14.5,6.7,86,76,60,30.40,30.23,21,4,21,0.00
2013-3-8,32.7,26.7,21.6,25.0,21.0,16.8,84,79,71,30.31,30.08,13,2,14,0.00
2013-3-9,30.7,28.6,25.2,26.8,24.5,19.4,87,84,78,30.08,29.84,20,4,20,0.07
2013-3-10,25.0,20.4,10.7,19.4,14.5,4.8,83,77,69,30.24,30.05,22,7,22,0.00
2013-3-11,25.4,16.1,4.2,16.1,8.6,-0.5,83,72,54,30.17,29.90,8,1,0,0.01
2013-3-12,25.9,20.0,11.1,18.7,14.6,6.2,84,79,71,30.39,29.94,20,4,20,0.05
2013-3-13,24.6,16.9,2.8,19.6,9.7,-1.3,83,73,60,30.47,30.15,16,3,17,0.00
2013-3-14,37.7,28.7,21.2,28.4,22.6,17.0,85,78,68,30.18,30.09,13,3,13,0.02
2013-3-15,24.4,20.1,11.7,18.5,15.7,7.0,85,83,77,30.16,29.98,17,5,19,0.31
2013-3-16,12.6,5.4,-1.7,7.0,-0.1,-6.5,82,77,70,30.41,30.16,16,3,16,0.00
2013-3-17,24.0,9.0,-6.2,20.2,3.7,-9.9,86,77,71,30.41,29.69,23,4,24,0.04
2013-3-18,27.9,16.0,6.2,24.5,11.6,0.6,87,82,77,30.05,29.56,23,7,28,0.09
2013-3-19,16.3,7.9,-0.7,7.0,0.7,-6.3,78,72,62,30.42,30.05,16,4,16,0.00
2013-3-20,17.5,9.2,-0.3,7.8,1.6,-5.7,76,70,62,30.45,30.28,14,3,14,0.00
2013-3-21,20.4,8.3,-3.9,10.8,2.1,-7.8,82,75,63,30.28,30.18,9,1,0,0.00
2013-3-22,23.7,12.2,-0.6,13.5,5.6,-4.5,83,74,63,30.23,30.17,6,1,0,0.00
2013-3-23,27.6,19.3,9.0,19.7,12.6,4.4,83,75,64,30.28,30.22,10,2,0,0.00
2013-3-24,32.4,23.1,14.0,23.6,17.3,10.1,85,79,62,30.27,30.20,17,4,17,0.00
2013-3-25,29.0,23.7,16.9,21.2,17.6,10.9,83,77,69,30.42,30.27,16,5,17,0.00
2013-3-26,27.9,18.1,9.3,17.6,11.0,4.0,83,73,62,30.44,30.36,7,1,0,0.00
2013-3-27,36.6,22.3,6.2,24.0,14.2,1.7,84,72,55,30.41,30.34,13,2,15,0.00
2013-3-28,39.2,33.3,26.6,28.9,25.0,18.5,84,71,63,30.35,30.26,16,3,19,0.00
2013-3-29,41.2,29.6,15.2,33.5,25.1,11.3,87,83,73,30.28,30.02,7,1,0,0.01
2013-3-30,41.9,35.5,30.1,33.4,30.2,26.6,88,81,71,30.03,29.92,12,2,12,0.00
2013-3-31,34.7,27.6,19.1,30.1,19.8,12.4,83,72,59,30.27,29.90,23,6,23,0.00
2013-4-1,31.2,27.4,20.6,18.9,16.7,14.9,79,64,55,30.41,30.33,12,3,13,0.00
2013-4-2,33.3,23.8,14.4,19.5,15.3,10.5,85,71,48,30.44,30.34,7,1,0,0.00
2013-4-3,42.0,31.2,19.8,34.3,23.8,13.0,83,74,66,30.40,29.94,25,5,25,0.00
2013-4-4,35.6,30.6,22.3,28.0,22.7,15.9,81,72,59,30.32,30.05,17,4,17,0.00
2013-4-5,34.6,28.9,16.6,28.7,21.8,12.6,84,75,59,30.33,29.82,16,4,17,0.00
2013-4-6,41.2,34.8,30.5,34.7,30.1,26.0,87,83,76,29.88,29.69,14,3,14,0.00
2013-4-7,38.6,34.1,31.9,31.1,29.2,27.5,87,82,71,29.94,29.81,12,2,12,0.29
2013-4-8,33.9,29.7,19.9,30.4,24.7,11.7,88,81,70,30.32,29.81,22,5,22,0.01
2013-4-9,28.6,21.0,14.3,18.7,12.2,5.7,73,68,59,30.44,30.31,21,6,22,0.00
2013-4-10,35.2,28.6,20.7,26.3,20.8,14.9,79,72,61,30.43,30.07,15,4,16,0.00
2013-4-11,35.1,31.3,28.2,27.0,25.0,19.8,86,78,55,30.08,29.88,11,2,13,0.21
2013-4-12,34.7,30.0,27.2,28.0,25.4,23.1,86,83,73,29.95,29.89,16,4,16,0.04
2013-4-13,34.6,30.2,25.8,25.8,23.4,20.3,87,76,59,29.97,29.91,8,2,0,0.00
2013-4-14,35.0,31.2,25.6,29.6,24.8,19.5,87,78,59,29.96,29.50,18,3,18,0.42
2013-4-15,36.8,33.4,31.6,32.2,29.6,27.9,88,86,81,30.03,29.42,15,3,15,0.33
2013-4-16,38.6,32.2,25.6,30.2,26.5,21.3,85,80,67,30.41,30.03,11,3,0,0.00
2013-4-17,35.6,32.7,29.4,31.4,28.8,25.9,87,85,82,30.43,30.15,14,3,16,0.14
2013-4-18,38.0,32.7,29.7,31.3,27.7,23.1,87,82,69,30.16,29.87,21,6,22,0.06
2013-4-19,36.4,30.9,25.4,24.8,21.9,18.5,79,69,57,30.12,29.84,22,6,23,0.00
2013-4-20,36.4,29.8,20.1,23.9,17.2,7.5,79,61,30,30.28,30.12,13,3,15,0.00
2013-4-21,41.6,35.5,30.2,36.0,29.8,23.7,87,80,72,30.22,30.00,19,5,21,0.03
2013-4-22,36.4,32.0,27.9,26.4,23.8,21.3,83,72,61,30.39,30.22,17,4,20,0.00
2013-4-23,41.9,33.1,22.0,25.6,22.4,17.1,83,66,46,30.37,30.05,11,2,0,0.00
2013-4-24,47.4,34.0,25.3,33.6,27.4,21.3,86,77,49,30.10,29.92,19,3,21,0.01
2013-4-25,46.5,36.0,28.2,35.8,26.2,21.1,82,68,47,30.18,29.96,17,3,17,0.00
2013-4-26,66.7,51.4,33.4,42.9,35.6,27.4,84,58,26,30.09,29.91,11,2,0,0.00
2013-4-27,72.2,58.5,41.9,50.2,40.2,33.1,72,52,36,30.07,29.71,20,4,24,0.00
2013-4-28,62.4,53.9,42.7,45.7,39.5,26.9,77,59,31,29.87,29.59,18,4,19,0.00
2013-4-29,65.6,55.4,37.1,42.9,36.6,28.6,71,50,33,29.89,29.38,16,4,16,0.00
2013-4-30,60.4,49.6,36.6,47.5,38.6,23.6,86,67,41,30.09,29.30,19,5,19,0.08
2013-5-1,42.4,36.3,30.2,25.8,22.8,19.3,73,58,48,30.63,30.07,19,5,19,0.00
2013-5-2,40.4,33.4,26.3,25.6,23.8,22.0,84,68,52,30.75,30.58,15,3,15,0.00
2013-5-3,52.7,44.9,26.6,26.8,24.6,21.3,81,46,33,30.59,30.28,15,3,17,0.00
2013-5-4,51.2,43.3,38.9,39.5,30.9,22.8,85,62,45,30.31,30.24,15,2,15,0.05
2013-5-5,50.4,44.3,38.7,41.9,38.4,35.1,87,80,70,30.28,30.15,10,1,0,0.08
2013-5-6,68.5,55.8,46.5,48.4,44.0,40.7,82,66,45,30.16,30.01,7,1,0,0.00
2013-5-7,77.7,63.2,45.1,47.4,42.9,37.6,87,53,24,30.03,29.85,15,2,15,0.00
2013-5-8,76.0,62.0,51.0,49.1,44.4,36.1,80,54,32,30.06,29.89,16,2,18,0.01
2013-5-9,67.1,55.1,40.9,36.4,30.2,22.3,66,42,20,30.17,30.06,18,4,18,0.00
2013-5-10,70.8,53.4,42.4,38.8,31.9,21.0,82,47,24,30.17,29.86,29,5,29,0.00
2013-5-11,52.6,44.6,36.3,29.4,20.1,9.9,71,41,18,30.32,30.12,26,7,26,0.00
2013-5-12,64.3,48.8,28.9,21.5,15.6,6.9,61,30,11,30.30,30.02,10,1,0,0.00
2013-5-13,91.3,68.9,49.3,42.4,29.9,20.1,37,25,9,30.02,29.54,22,5,24,0.00
2013-5-14,88.0,70.6,57.5,53.4,41.3,27.8,76,37,13,29.75,29.43,26,5,27,0.05
2013-5-15,85.4,68.0,52.1,43.2,35.8,23.6,66,37,11,29.84,29.72,15,2,16,0.00
2013-5-16,78.6,62.9,49.9,50.2,40.8,32.4,71,48,19,29.91,29.81,22,2,22,0.02
2013-5-17,73.5,65.3,54.5,53.9,45.6,33.0,72,50,32,29.91,29.83,15,3,16,0.00
2013-5-18,83.8,68.8,57.9,63.6,57.4,52.3,86,69,38,29.84,29.68,13,2,13,0.23
2013-5-19,76.9,66.5,58.2,65.4,58.8,54.0,87,77,55,29.69,29.51,19,2,19,0.66
2013-5-20,64.5,58.8,56.2,59.2,54.6,51.7,87,86,81,29.55,29.42,14,2,14,0.53
2013-5-21,56.1,50.8,48.2,51.7,46.5,43.6,88,85,79,29.85,29.54,17,2,18,0.27
2013-5-22,71.6,58.6,47.2,50.1,42.6,29.3,85,60,21,30.08,29.85,17,2,18,0.00
2013-5-23,69.0,59.5,47.0,44.3,33.6,22.3,72,42,17,30.31,30.08,11,1,0,0.00
2013-5-24,66.5,56.0,46.9,47.8,38.5,28.4,80,54,27,30.28,30.11,23,4,24,0.03
2013-5-25,68.7,60.4,53.5,51.8,49.2,47.6,82,67,53,30.15,30.06,20,5,20,0.01
2013-5-26,60.9,57.2,53.9,48.2,45.3,41.8,75,65,51,30.15,29.99,19,4,19,0.00
2013-5-27,69.7,61.5,54.8,56.6,50.8,45.3,77,68,56,30.01,29.76,11,2,13,0.01
2013-5-28,73.6,62.8,57.3,56.9,54.0,51.7,86,74,53,29.78,29.60,14,3,14,0.00
2013-5-29,70.4,62.7,56.2,60.9,56.7,51.8,87,81,69,29.69,29.55,12,2,12,1.41
2013-5-30,77.6,67.1,60.6,64.3,60.1,56.6,88,79,51,29.58,29.35,15,3,15,0.99
2013-5-31,64.5,61.3,58.7,58.8,55.1,51.3,87,80,71,29.54,29.30,16,2,17,0.09
2013-6-1,60.6,52.7,47.6,55.2,46.0,42.2,87,78,66,30.07,29.54,25,6,25,0.00
2013-6-2,65.0,55.2,41.5,44.9,39.9,33.1,87,60,31,30.14,30.01,11,2,0,0.00
2013-6-3,65.2,57.8,45.4,47.6,40.8,34.8,83,55,34,30.05,29.93,12,1,12,0.01
2013-6-4,59.4,56.5,52.7,53.6,50.1,45.6,87,79,69,29.97,29.89,19,3,19,0.48
2013-6-5,62.1,56.5,54.4,52.1,50.8,49.4,87,81,67,30.06,29.92,13,1,13,0.00
2013-6-6,68.3,60.3,52.3,49.6,47.0,41.8,84,64,41,30.08,30.00,13,1,13,0.00
2013-6-7,73.1,62.2,50.9,52.6,48.0,43.3,84,63,36,30.03,29.83,10,2,12,0.04
2013-6-8,74.0,64.6,54.5,52.5,49.8,46.5,84,61,40,29.87,29.78,16,2,16,0.02
2013-6-9,64.3,60.2,54.3,57.1,53.9,50.1,87,80,64,29.85,29.81,12,0,12,0.40
2013-6-10,75.3,64.4,51.6,60.4,55.7,48.1,88,74,54,29.84,29.74,10,1,0,0.02
2013-6-11,82.8,70.2,56.8,60.5,49.2,35.8,85,54,20,29.92,29.78,10,1,0,0.00
2013-6-12,75.7,67.1,59.4,58.4,51.9,45.9,75,59,39,30.03,29.81,14,2,14,0.00
2013-6-13,80.9,68.8,52.8,54.5,49.7,43.8,83,54,30,30.11,29.97,9,1,0,0.00
2013-6-14,83.0,73.0,64.0,61.2,56.0,51.3,70,56,41,29.99,29.67,22,3,25,0.00
2013-6-15,84.2,72.6,59.2,61.1,47.7,34.3,79,46,18,29.90,29.75,15,1,16,0.00
2013-6-16,87.5,74.3,59.7,52.3,45.2,35.1,65,39,17,29.85,29.75,20,2,22,0.00
2013-6-17,80.0,71.3,61.4,56.2,52.9,48.1,73,53,37,30.00,29.84,14,2,15,0.00
2013-6-18,79.8,70.0,58.8,55.7,50.2,44.6,80,53,30,30.09,29.91,9,1,0,0.00
2013-6-19,87.8,76.8,63.1,58.1,53.6,48.3,73,47,27,29.94,29.79,10,2,0,0.00
2013-6-20,82.8,72.6,62.6,67.7,61.9,56.6,86,70,51,29.91,29.76,17,2,17,1.40
2013-6-21,82.0,70.6,61.9,66.7,61.9,57.8,87,75,54,29.98,29.72,14,1,16,0.25
2013-6-22,83.0,72.9,65.4,66.3,63.1,60.0,87,73,47,29.88,29.72,12,2,13,0.00
2013-6-23,79.2,70.7,62.7,64.3,60.2,53.1,88,71,43,29.78,29.57,17,1,17,0.78
2013-6-24,84.3,74.4,62.8,65.9,59.0,52.5,79,60,35,29.80,29.69,10,1,12,0.00
2013-6-25,87.3,75.7,66.8,72.1,66.8,61.6,87,75,57,29.71,29.53,16,2,16,1.43
2013-6-26,86.5,74.3,63.4,68.1,62.6,57.6,88,69,38,29.74,29.52,17,1,17,1.84
2013-6-27,86.7,76.7,67.2,62.9,57.4,49.6,75,54,29,29.82,29.74,18,3,21,0.00
2013-6-28,81.5,73.3,65.2,59.1,56.3,52.9,73,56,40,29.89,29.81,20,5,22,0.00
2013-6-29,82.3,72.1,61.8,61.2,57.3,51.9,84,62,36,29.99,29.88,15,2,15,0.00
2013-6-30,84.0,73.9,60.0,60.8,53.6,45.3,86,53,26,30.12,29.99,9,0,0,0.00
2013-7-1,87.1,74.7,60.0,60.0,53.5,41.6,82,52,23,30.20,30.10,8,0,0,0.00
2013-7-2,89.0,76.9,63.4,59.7,54.1,43.0,81,50,21,30.12,29.98,7,0,0,0.00
2013-7-3,87.7,76.8,65.0,61.1,55.7,48.9,77,51,28,29.98,29.81,10,1,12,0.00
2013-7-4,90.7,78.2,65.5,62.2,56.4,51.3,64,48,29,29.82,29.63,18,2,18,0.00
2013-7-5,90.4,81.2,69.0,66.8,62.4,56.8,80,55,33,29.69,29.64,7,1,0,0.00
2013-7-6,81.7,75.3,69.5,69.0,65.8,63.1,86,73,56,29.75,29.68,9,1,12,0.24
2013-7-7,85.5,76.0,68.0,69.9,61.3,51.1,87,64,34,29.90,29.74,11,1,0,0.00
2013-7-8,86.4,75.1,60.4,63.9,58.7,54.7,85,60,34,29.95,29.83,7,1,0,0.00
2013-7-9,77.8,72.2,63.3,68.8,61.5,53.8,87,70,54,30.00,29.70,17,3,17,0.13
2013-7-10,81.7,70.5,57.1,57.2,52.0,46.0,82,56,29,30.07,29.96,12,1,12,0.00
2013-7-11,85.8,75.0,62.4,66.0,59.3,52.9,76,59,44,30.00,29.75,16,3,17,0.00
2013-7-12,90.2,80.0,72.1,70.9,65.9,61.9,80,63,49,29.79,29.65,19,3,19,0.00
2013-7-13,86.8,77.6,69.3,72.0,68.7,65.3,87,75,56,29.92,29.79,12,1,12,0.00
2013-7-14,76.2,72.5,69.3,67.9,65.7,61.9,86,79,71,30.14,29.92,15,1,15,0.01
2013-7-15,73.3,70.2,66.7,69.2,65.9,62.7,87,86,83,30.14,30.01,8,1,0,0.23
2013-7-16,90.7,80.4,69.2,68.4,66.0,62.3,85,64,41,30.07,30.00,10,2,12,0.00
2013-7-18,94.8,84.4,72.9,72.3,68.8,66.8,84,61,43,29.91,29.61,12,1,13,0.00
2013-7-19,85.3,73.8,64.5,67.1,59.6,54.6,86,64,37,29.86,29.66,14,2,14,0.36
2013-7-20,73.5,65.1,57.3,60.0,53.1,48.9,85,67,44,29.99,29.85,11,1,0,0.00
2013-7-21,81.4,69.9,54.6,65.0,57.9,48.7,85,67,52,29.94,29.60,13,1,13,0.00
2013-7-22,73.8,69.3,58.9,65.8,57.8,50.6,82,67,53,29.92,29.59,13,3,13,0.00
2013-7-23,75.0,64.8,53.0,55.7,51.5,48.3,85,64,42,30.04,29.92,10,1,0,0.00
2013-7-24,83.7,70.6,55.4,57.6,54.2,51.1,87,59,33,30.04,29.84,13,1,13,0.00
2013-7-25,83.2,70.4,60.2,60.3,54.2,44.1,83,59,31,29.94,29.85,18,2,18,0.00
2013-7-26,70.1,62.9,55.6,52.4,47.6,41.8,85,60,38,30.17,29.94,21,4,21,0.01
2013-7-27,71.5,61.8,48.3,48.0,44.0,38.7,81,55,32,30.18,30.01,17,2,17,0.00
2013-7-28,75.3,63.8,48.6,51.9,45.7,40.6,85,56,30,30.05,29.99,7,0,0,0.00
2013-7-29,75.6,65.5,54.1,56.6,51.7,48.3,82,63,39,30.04,29.98,14,2,14,0.10
2013-7-30,78.8,69.0,60.5,62.3,58.3,55.4,85,70,48,30.04,29.99,10,1,0,0.00
2013-7-31,77.3,68.2,58.8,57.8,50.9,43.8,85,58,33,30.06,29.99,15,2,15,0.00
2013-8-1,81.1,71.3,59.4,53.3,49.9,45.6,73,49,30,30.00,29.85,14,1,14,0.00
2013-8-2,76.9,66.4,54.7,55.4,49.5,43.8,82,57,32,30.07,29.88,8,1,13,0.00
2013-8-3,76.3,66.7,57.3,52.0,48.2,41.1,78,54,30,30.23,30.07,12,1,12,0.00
2013-8-4,75.2,65.0,54.3,54.4,50.7,46.8,80,61,45,30.23,29.88,14,2,14,0.00
2013-8-5,73.0,67.0,60.1,57.7,55.0,52.8,81,66,51,29.90,29.79,9,1,0,0.00
2013-8-6,78.0,64.5,56.6,63.8,57.4,51.1,87,78,58,29.87,29.69,11,2,13,0.27
2013-8-7,74.1,63.4,51.5,53.7,49.4,46.3,83,63,39,30.02,29.86,7,1,0,0.00
2013-8-8,76.0,66.4,57.0,54.9,51.8,45.3,84,62,36,30.02,29.96,8,1,0,0.01
2013-8-9,70.5,62.0,50.9,53.0,49.2,44.6,80,64,46,30.14,30.01,13,2,16,0.00
2013-8-10,74.0,63.7,51.6,54.4,51.5,46.9,86,66,46,30.19,30.04,6,0,0,0.00
2013-8-11,76.5,66.3,59.5,58.9,54.5,51.1,85,68,42,30.09,30.01,10,1,0,0.00
2013-8-12,80.2,67.0,53.8,54.9,50.3,43.4,85,59,35,30.13,30.04,16,2,16,0.00
2013-8-13,76.1,63.7,48.7,50.6,44.7,40.1,79,54,28,30.23,30.12,9,1,0,0.00
2013-8-14,77.7,65.0,50.1,52.0,46.8,40.6,85,56,27,30.17,30.04,6,0,0,0.00
2013-8-15,80.1,69.6,59.8,61.0,55.3,49.6,78,62,41,30.07,30.02,7,0,0,0.00
2013-8-16,80.5,71.5,62.0,59.6,55.4,50.6,81,59,36,30.10,30.03,16,1,16,0.00
2013-8-17,82.1,71.5,58.8,64.0,60.0,54.1,85,68,53,30.05,29.90,12,3,16,0.00
2013-8-18,84.3,74.5,63.7,67.7,63.4,57.8,81,69,56,29.95,29.79,14,2,14,0.00
2013-8-19,88.2,81.0,73.0,69.9,67.8,65.7,79,66,49,29.85,29.73,8,1,0,0.00
2013-8-20,94.6,81.9,69.1,72.8,68.6,62.4,86,67,37,29.74,29.64,13,2,14,0.00
2013-8-21,83.5,75.2,62.9,71.8,55.0,44.6,76,53,26,30.03,29.66,14,2,14,0.00
2013-8-22,79.8,71.0,61.0,51.9,46.1,38.3,70,44,23,30.17,30.03,9,1,0,0.00
2013-8-23,85.0,71.9,55.4,67.8,57.1,49.0,81,61,39,30.09,29.85,16,2,16,0.00
2013-8-24,92.7,82.4,72.9,72.4,69.0,66.8,82,65,45,29.86,29.65,19,3,19,0.00
2013-8-25,93.4,84.4,71.9,74.0,70.3,61.3,80,64,47,29.85,29.71,12,1,22,0.00
2013-8-26,93.2,81.2,73.2,75.6,70.8,64.4,87,72,46,29.87,29.75,11,0,12,0.00
2013-8-27,91.5,79.8,66.1,70.4,64.9,59.5,85,63,36,29.87,29.75,9,0,0,0.00
2013-8-28,89.3,80.7,74.7,71.9,68.1,66.0,79,66,49,29.93,29.85,9,1,0,0.00
2013-8-29,89.5,79.1,71.7,73.7,69.4,65.5,87,73,53,29.89,29.75,11,2,12,0.26
2013-8-30,87.3,75.1,65.9,65.8,63.3,58.5,88,69,39,29.96,29.79,7,1,0,0.00
2013-8-31,87.3,76.9,65.8,68.9,62.2,52.4,83,62,39,29.81,29.63,16,2,17,0.00
2013-9-1,70.5,62.2,54.9,56.9,52.1,47.4,83,70,49,30.05,29.78,17,3,17,0.00
2013-9-2,74.1,63.1,49.2,50.6,47.7,44.0,85,60,36,30.13,29.99,5,0,0,0.00
2013-9-3,84.1,68.5,53.8,59.1,53.4,47.7,81,61,37,30.00,29.91,10,1,0,0.00
2013-9-4,78.7,67.1,54.6,60.7,48.5,39.6,78,54,26,30.15,29.97,12,1,12,0.00
2013-9-5,86.5,72.3,57.6,64.7,56.4,46.3,75,59,43,30.16,29.94,15,2,15,0.00
2013-9-6,90.1,78.3,67.8,68.6,65.6,62.1,83,67,45,29.94,29.78,7,1,0,0.00
2013-9-7,85.8,75.0,66.3,67.0,61.2,55.5,85,64,40,30.00,29.82,15,2,15,0.00
2013-9-8,70.3,65.4,59.2,61.9,58.8,54.7,87,80,64,30.04,29.80,15,2,15,0.72
2013-9-9,73.9,67.8,64.3,68.1,63.5,60.3,88,86,81,29.82,29.58,10,1,0,0.44
2013-9-10,76.0,67.3,61.1,61.9,59.5,57.4,88,77,56,29.90,29.76,9,1,0,0.03
2013-9-11,82.0,68.2,57.9,59.8,52.3,41.3,86,61,26,30.14,29.89,18,2,18,0.00
2013-9-12,71.7,61.1,51.2,54.5,49.1,45.8,85,67,41,30.28,30.13,10,1,0,0.00
2013-9-13,74.3,61.2,50.8,51.0,48.0,45.8,87,65,39,30.22,29.94,12,2,12,0.00
2013-9-14,60.7,57.7,54.4,55.7,51.9,46.8,88,81,64,29.94,29.80,10,2,0,1.49
2013-9-15,63.1,55.5,47.0,54.5,47.8,41.8,89,77,47,30.32,29.94,14,2,14,0.00
2013-9-16,67.1,58.7,45.3,50.6,44.7,37.3,88,62,41,30.35,30.10,14,2,14,0.00
2013-9-17,65.1,58.4,52.7,56.8,51.8,45.5,84,79,72,30.10,29.80,13,4,15,0.00
2013-9-18,78.8,67.2,59.5,69.4,61.7,54.8,87,83,72,29.80,29.48,14,2,14,0.00
2013-9-19,73.0,65.5,57.1,64.0,56.4,49.4,88,74,45,29.83,29.55,20,2,20,0.04
2013-9-20,59.6,54.0,46.5,51.2,46.6,40.6,88,77,53,29.98,29.83,13,2,13,0.10
2013-9-21,61.7,52.9,42.2,46.3,43.0,38.6,88,71,50,30.03,29.85,7,0,0,0.00
2013-9-22,77.7,64.0,49.9,56.1,50.3,44.0,82,63,46,29.86,29.58,18,5,22,0.00
2013-9-23,78.1,68.9,62.3,52.7,51.2,50.2,67,54,38,29.77,29.60,22,5,22,0.00
2013-9-24,73.1,63.8,57.4,57.0,52.5,48.9,83,68,43,29.91,29.77,6,0,0,0.00
2013-9-25,75.8,64.4,55.2,57.3,52.5,49.2,84,67,44,29.88,29.70,18,3,18,0.00
2013-9-26,80.7,69.9,63.2,60.2,56.1,51.0,74,62,45,29.73,29.62,22,3,22,0.00
2013-9-27,65.9,56.3,52.4,55.8,49.3,47.1,87,78,69,29.78,29.68,11,2,0,0.05
2013-9-28,59.1,53.0,50.1,49.7,47.3,42.5,88,81,62,29.82,29.61,12,1,14,1.18
2013-9-29,75.7,60.7,46.0,51.2,45.2,39.9,79,59,33,29.83,29.50,11,2,14,0.00
2013-9-30,75.0,68.0,59.3,54.1,50.2,41.1,68,54,31,29.55,29.44,8,0,0,0.00
2013-10-1,70.0,61.1,51.8,53.2,39.6,27.9,71,48,21,29.92,29.46,18,2,18,0.00
2013-10-2,64.1,53.5,45.0,48.4,42.6,36.5,84,67,46,30.00,29.91,10,1,0,0.00
2013-10-3,56.8,50.5,44.9,48.8,44.3,40.7,86,79,72,30.09,29.94,13,2,14,0.00
2013-10-4,51.1,46.7,43.7,44.0,41.6,38.4,87,82,73,30.17,29.93,19,4,19,0.10
2013-10-5,54.1,48.9,46.1,48.8,44.9,42.7,88,86,80,29.94,29.80,17,2,17,0.89
2013-10-6,60.6,49.9,41.5,44.8,40.8,35.4,88,73,46,29.92,29.81,18,3,18,0.19
2013-10-7,64.9,56.5,44.8,44.8,40.2,35.3,81,56,34,29.98,29.79,10,1,0,0.00
2013-10-8,74.3,60.4,51.7,51.0,46.2,39.2,84,61,37,29.79,29.58,14,2,14,0.00
2013-10-9,70.8,56.5,43.2,47.5,43.3,38.2,87,65,32,29.97,29.74,8,0,0,0.00
2013-10-10,72.8,62.4,53.0,56.9,50.7,43.8,81,66,51,29.93,29.66,17,2,17,0.00
2013-10-11,69.3,62.3,52.9,57.4,52.1,45.7,85,70,51,29.68,29.31,22,5,29,0.33
2013-10-12,54.5,49.2,41.3,46.2,41.3,33.9,86,75,51,30.19,29.41,16,3,21,0.16
2013-10-13,59.8,46.9,34.7,43.5,35.6,30.7,87,67,39,30.41,30.19,7,0,0,0.02
2013-10-14,50.9,46.4,43.4,42.4,40.3,37.5,87,80,61,30.37,30.02,16,2,16,1.09
2013-10-15,44.5,43.1,36.7,40.6,38.9,31.6,87,85,78,30.07,29.94,20,4,20,0.45
2013-10-16,59.0,43.7,30.5,40.8,34.2,27.1,88,71,42,30.06,29.83,9,0,0,0.01
2013-10-17,48.2,43.7,34.5,41.5,34.9,28.0,82,71,57,29.99,29.83,15,3,17,0.00
2013-10-18,51.4,39.6,31.6,35.9,31.7,27.0,83,74,46,30.00,29.79,14,1,14,0.01
2013-10-19,43.4,38.1,33.0,35.3,32.1,28.6,86,79,66,29.80,29.72,13,2,13,0.03
2013-10-20,39.7,36.3,33.7,35.6,30.5,22.4,87,79,63,30.00,29.64,15,3,18,0.36
2013-10-21,39.2,35.9,32.4,27.4,25.0,20.9,72,64,55,30.03,29.99,10,2,13,0.00
2013-10-22,40.6,35.7,30.7,29.7,26.2,22.5,80,69,49,30.12,30.02,11,2,0,0.00
2013-10-23,39.7,35.3,31.8,30.4,25.0,21.2,83,66,49,30.20,30.07,13,2,16,0.00
2013-10-24,42.7,37.0,30.0,31.3,29.3,25.8,84,74,59,30.33,30.20,9,1,0,0.00
2013-10-25,59.2,42.4,29.8,40.6,30.5,23.8,81,64,42,30.31,29.78,19,2,19,0.00
2013-10-26,43.3,38.2,32.4,29.1,26.8,24.5,75,64,51,30.19,29.94,14,2,14,0.00
2013-10-27,47.9,39.7,32.8,31.8,27.9,25.1,77,63,46,30.32,29.79,18,3,20,0.00
2013-10-28,37.7,31.8,26.4,25.2,19.2,14.9,75,60,41,30.59,30.32,11,1,0,0.00
2013-10-29,36.0,31.2,24.7,30.3,23.6,17.3,80,73,68,30.51,30.15,5,0,0,0.00
2013-10-30,38.8,37.0,34.8,35.0,32.9,30.0,87,85,80,30.15,29.73,5,0,0,0.00
2013-10-31,44.4,40.2,37.6,38.4,35.2,33.1,87,82,75,29.73,29.46,4,0,0,0.01
2013-11-1,48.6,39.2,32.0,36.6,32.1,27.6,84,76,58,29.95,29.50,13,1,13,0.00
2013-11-2,51.8,40.4,30.7,36.6,31.6,26.9,87,72,47,30.08,29.95,8,1,0,0.00
2013-11-3,54.2,47.5,38.7,35.0,32.7,29.4,78,58,41,29.99,29.64,30,5,30,0.00
2013-11-4,47.5,40.2,30.1,34.8,26.9,20.8,68,59,48,30.12,29.65,16,2,16,0.00
2013-11-5,37.5,31.9,27.3,22.9,20.2,17.2,72,62,53,30.27,30.12,8,1,0,0.00
2013-11-6,39.6,29.4,20.7,28.5,21.4,15.2,82,72,62,30.20,30.11,7,0,0,0.00
2013-11-7,41.2,30.0,21.4,25.6,21.2,15.9,81,70,53,30.29,30.15,7,1,0,0.00
2013-11-8,44.3,36.0,26.0,33.2,27.5,21.0,86,73,40,30.15,29.60,21,4,22,0.22
2013-11-9,39.7,37.5,33.8,34.4,29.0,24.8,86,71,60,30.32,29.65,27,5,27,0.00
2013-11-10,38.8,29.2,17.7,28.2,21.5,9.0,81,73,62,30.42,30.16,21,3,23,0.00
2013-11-11,18.5,15.6,11.6,8.9,6.4,4.7,75,67,57,30.85,30.41,19,4,19,0.00
2013-11-12,36.2,23.6,10.4,16.3,9.1,3.1,76,56,32,30.85,30.27,14,3,14,0.00
2013-11-13,58.6,38.0,23.6,35.6,26.5,15.7,82,65,39,30.27,29.84,12,3,15,0.00
2013-11-14,45.4,38.4,29.6,35.5,31.5,25.2,86,76,66,29.86,29.77,10,1,0,0.00
2013-11-15,49.4,37.9,25.4,38.9,31.3,21.8,87,78,59,29.81,29.42,19,3,19,0.03
2013-11-16,45.3,39.7,34.7,38.9,34.8,30.4,86,83,77,29.42,29.28,12,2,12,0.05
2013-11-17,38.3,32.5,26.6,34.8,27.3,19.4,87,81,73,29.98,29.35,21,5,23,0.03
2013-11-18,26.6,25.8,25.3,19.8,18.8,17.9,78,75,72,30.20,29.98,16,4,16,0.00
2013-11-19,46.8,37.2,24.7,34.6,27.4,19.1,79,68,57,30.19,29.61,23,6,23,0.00
2013-11-20,44.2,30.9,19.3,33.6,23.9,13.3,81,75,66,30.23,29.63,21,5,21,0.00
2013-11-21,19.3,13.9,8.1,13.3,7.0,0.7,81,73,67,30.71,30.23,23,5,23,0.00
2013-11-22,20.7,11.5,1.8,15.5,4.4,-3.4,81,73,67,30.92,30.55,17,3,17,0.01
2013-11-23,11.4,4.2,-3.9,3.0,-1.9,-8.5,77,74,65,31.04,30.69,11,2,16,0.00
2013-11-24,41.3,25.6,7.8,27.4,15.0,1.5,75,64,49,30.69,29.85,22,5,22,0.00
2013-11-25,35.8,30.0,22.3,26.9,22.5,10.8,81,73,60,30.25,29.86,23,5,23,0.00
2013-11-26,22.2,16.0,7.9,12.6,7.9,3.3,81,70,61,30.54,30.25,19,4,19,0.00
2013-11-27,24.5,16.3,6.4,11.6,7.3,1.8,83,68,50,30.52,30.05,19,3,23,0.00
2013-11-28,22.5,17.5,10.3,15.0,9.2,5.5,81,70,57,30.54,30.18,18,3,19,0.00
2013-11-29,34.8,23.9,11.4,19.0,13.9,6.4,80,66,51,30.53,30.04,22,4,22,0.00
2013-11-30,27.2,24.2,20.9,20.6,18.7,16.3,84,79,71,30.29,30.05,10,2,0,0.00
2013-12-1,28.4,22.6,19.3,23.6,18.2,15.5,86,83,79,30.29,29.86,11,2,0,0.02
2013-12-2,31.1,29.1,26.7,27.4,25.1,22.5,86,85,81,29.86,29.63,10,2,0,0.21
2013-12-3,26.9,23.5,21.4,23.4,19.2,17.1,87,83,81,29.93,29.71,17,5,18,0.01
2013-12-4,28.1,18.5,7.7,24.7,14.5,3.6,87,84,83,29.90,29.73,20,5,20,0.15
2013-12-5,7.7,1.1,-3.7,3.6,-3.3,-8.0,83,79,78,30.45,29.87,19,4,19,0.03
2013-12-6,-2.9,-7.0,-10.6,-7.5,-11.1,-14.4,79,77,76,30.77,30.44,9,2,0,0.00
2013-12-7,-5.2,-9.9,-13.3,-9.8,-13.9,-17.0,77,76,74,30.79,30.62,9,1,0,0.00
2013-12-8,6.3,-1.6,-12.8,1.4,-5.9,-16.4,81,79,76,30.63,30.14,10,2,0,0.00
2013-12-9,3.8,-3.1,-10.0,-0.7,-7.7,-14.1,81,77,74,30.21,29.86,13,3,13,0.01
2013-12-10,8.1,-0.6,-8.8,2.9,-5.3,-13.1,80,77,75,30.50,29.91,9,2,0,0.00
2013-12-11,0.7,-6.7,-14.2,-3.8,-11.1,-17.8,80,75,71,30.63,30.32,12,2,13,0.00
2013-12-12,13.1,6.9,0.5,7.5,1.7,-4.1,80,78,75,30.37,30.27,13,1,13,0.00
2013-12-13,5.6,1.1,-0.4,0.3,-4.1,-5.7,79,76,74,30.48,30.30,16,2,16,0.00
2013-12-14,3.1,2.5,1.8,-1.8,-2.5,-3.1,80,78,77,30.47,30.37,5,0,0,0.01
2013-12-15,4.7,-0.1,-4.3,-0.3,-5.2,-9.7,80,76,73,30.24,30.09,13,3,14,0.00
2013-12-16,31.9,20.0,4.6,27.0,14.8,-0.4,83,80,75,30.11,29.90,16,4,17,0.03
2013-12-17,30.3,16.2,5.5,25.5,10.2,0.3,82,77,68,30.18,29.93,18,3,18,0.00
2013-12-18,31.7,20.1,3.7,22.7,13.3,-2.2,82,75,66,30.09,29.65,18,4,24,0.00
2013-12-19,3.6,-1.1,-4.3,-2.4,-6.4,-9.5,78,75,71,30.35,30.09,17,5,19,0.00
2013-12-20,9.2,1.5,-4.8,3.5,-3.6,-9.9,80,77,72,30.30,29.96,9,1,0,0.00
2013-12-21,3.2,-1.9,-5.4,-1.6,-6.9,-9.9,79,76,70,30.28,29.96,12,2,13,0.00
2013-12-22,-2.4,-5.4,-10.4,-7.8,-10.7,-15.9,76,73,68,30.57,30.25,15,5,15,0.00
2013-12-23,-6.2,-12.6,-17.9,-13.7,-17.7,-21.7,76,70,63,30.75,30.55,11,2,0,0.00
2013-12-24,17.4,2.7,-16.0,12.8,-2.4,-19.6,82,76,69,30.55,30.11,19,5,22,0.00
2013-12-25,23.8,17.6,13.6,19.7,11.6,7.8,84,77,68,30.25,30.06,16,2,17,0.00
2013-12-26,26.3,20.6,14.0,22.1,15.8,8.7,84,81,78,30.17,30.09,7,1,0,0.03
2013-12-27,40.4,32.9,24.6,32.3,27.4,20.1,85,80,71,30.10,29.86,16,3,16,0.00
2013-12-28,34.5,15.9,-11.7,30.5,11.8,-16.2,87,82,73,30.52,29.73,22,6,30,0.00
2013-12-29,-3.1,-8.7,-12.3,-10.2,-14.2,-16.9,73,70,65,30.59,30.32,12,3,19,0.00
2013-12-30,4.3,-4.7,-11.8,-1.7,-9.7,-16.3,79,74,71,30.40,30.26,9,2,14,0.00
2013-12-31,-10.1,-13.9,-17.2,-14.7,-18.5,-21.6,75,71,65,30.61,30.35,10,2,12,0.00
2014-1-1,-2.8,-9.4,-15.4,-9.0,-14.4,-19.8,76,72,69,30.67,30.57,5,1,0,0.00
2014-1-2,-3.5,-12.2,-19.0,-8.5,-16.3,-22.2,78,74,66,30.67,30.26,15,2,18,0.00